createdAt,value
2023-05-18T00:00:21.148Z,47.25
2023-05-18T00:05:26.152Z,46.75
2023-05-18T00:10:31.732Z,45.57
2023-05-18T00:15:36.844Z,46.00
2023-05-18T00:20:42.887Z,46.12
2023-05-18T00:25:47.847Z,45.35
2023-05-18T00:30:57.095Z,45.56
2023-05-18T00:36:02.626Z,44.53
2023-05-18T00:41:07.701Z,44.90
2023-05-18T00:46:13.147Z,45.47
2023-05-18T00:51:18.831Z,44.62
2023-05-18T00:56:26.400Z,44.14
2023-05-18T01:01:35.862Z,44.11
2023-05-18T01:06:44.060Z,43.82
2023-05-18T01:12:02.043Z,43.97
2023-05-18T01:17:41.041Z,44.03
2023-05-18T01:23:11.422Z,43.74
2023-05-18T01:28:20.022Z,42.31
2023-05-18T01:33:26.555Z,42.86
2023-05-18T01:38:32.071Z,42.99
2023-05-18T01:43:39.943Z,42.17
2023-05-18T01:48:50.594Z,42.36
2023-05-18T01:54:02.476Z,42.87
2023-05-18T01:59:07.933Z,41.43
2023-05-18T02:04:14.288Z,41.00
2023-05-18T02:09:19.339Z,41.09
2023-05-18T02:14:25.548Z,38.40
2023-05-18T02:19:34.593Z,39.65
2023-05-18T02:24:40.917Z,39.47
2023-05-18T02:29:45.896Z,39.87
2023-05-18T02:34:54.481Z,39.85
2023-05-18T02:39:59.467Z,39.06
2023-05-18T02:45:04.953Z,38.54
2023-05-18T02:50:10.995Z,37.57
2023-05-18T02:55:16.168Z,34.12
2023-05-18T03:00:33.303Z,37.33
2023-05-18T03:05:37.500Z,37.11
2023-05-18T03:10:42.594Z,37.07
2023-05-18T03:15:48.476Z,35.41
2023-05-18T03:20:54.046Z,36.83
2023-05-18T03:25:59.438Z,35.38
2023-05-18T03:31:06.641Z,35.94
2023-05-18T03:36:14.341Z,35.92
2023-05-18T03:41:20.819Z,35.14
2023-05-18T03:46:27.303Z,34.97
2023-05-18T03:51:33.620Z,33.81
2023-05-18T03:56:39.878Z,35.02
2023-05-18T04:01:45.750Z,35.59
2023-05-18T04:06:52.995Z,34.63
2023-05-18T04:11:57.976Z,34.24
2023-05-18T04:17:07.707Z,34.11
2023-05-18T04:22:13.943Z,33.89
2023-05-18T04:27:18.937Z,34.35
2023-05-18T04:32:28.331Z,33.53
2023-05-18T04:37:34.180Z,33.70
2023-05-18T04:42:46.577Z,32.66
2023-05-18T04:47:54.939Z,32.10
2023-05-18T04:53:03.425Z,32.54
2023-05-18T04:58:09.668Z,32.00
2023-05-18T05:03:15.009Z,32.82
2023-05-18T05:08:20.045Z,31.78
2023-05-18T05:13:25.058Z,31.51
2023-05-18T05:18:30.137Z,31.87
2023-05-18T05:23:35.850Z,30.61
2023-05-18T05:28:41.971Z,29.28
2023-05-18T05:33:47.564Z,29.47
2023-05-18T05:38:52.666Z,29.51
2023-05-18T05:43:58.372Z,30.24
2023-05-18T05:49:04.683Z,28.62
2023-05-18T05:54:10.907Z,30.24
2023-05-18T05:59:16.880Z,29.05
2023-05-18T06:04:22.959Z,28.01
2023-05-18T06:09:29.836Z,27.55
2023-05-18T06:14:35.077Z,30.17
2023-05-18T06:19:40.364Z,28.75
2023-05-18T06:24:45.494Z,27.45
2023-05-18T06:30:13.871Z,26.41
2023-05-18T06:35:48.116Z,26.55
2023-05-18T06:40:53.270Z,28.52
2023-05-18T06:45:58.725Z,28.61
2023-05-18T06:51:13.615Z,28.86
2023-05-18T06:56:20.055Z,29.07
2023-05-18T07:01:26.422Z,28.83
2023-05-18T07:06:35.569Z,27.65
2023-05-18T07:11:41.896Z,28.81
2023-05-18T07:16:48.556Z,28.83
2023-05-18T07:21:54.073Z,28.31
2023-05-18T07:27:00.795Z,28.14
2023-05-18T07:32:06.561Z,28.17
2023-05-18T07:37:12.156Z,28.62
2023-05-18T07:42:18.808Z,28.35
2023-05-18T07:47:29.742Z,30.71
2023-05-18T07:52:35.892Z,29.78
2023-05-18T07:57:40.584Z,27.65
2023-05-18T08:02:47.465Z,28.88
2023-05-18T08:07:53.425Z,28.10
2023-05-18T08:13:02.174Z,27.54
2023-05-18T08:18:11.340Z,28.05
2023-05-18T08:23:16.553Z,29.20
2023-05-18T08:28:22.082Z,28.35
2023-05-18T08:33:30.135Z,29.62
2023-05-18T08:38:36.568Z,29.11
2023-05-18T08:43:48.237Z,30.17
2023-05-18T08:48:57.134Z,30.25
2023-05-18T08:54:10.560Z,29.94
2023-05-18T08:59:20.461Z,29.62
2023-05-18T09:04:26.719Z,28.87
2023-05-18T09:09:32.951Z,27.50
2023-05-18T09:14:38.247Z,29.05
2023-05-18T09:19:43.239Z,29.19
2023-05-18T09:24:48.722Z,29.04
2023-05-18T09:29:58.848Z,29.65
2023-05-18T09:35:11.400Z,30.80
2023-05-18T09:40:17.982Z,29.21
2023-05-18T09:45:30.194Z,30.09
2023-05-18T09:50:36.201Z,29.53
2023-05-18T09:55:50.053Z,30.94
2023-05-18T10:00:58.209Z,29.94
2023-05-18T10:06:14.737Z,30.80
2023-05-18T10:11:23.226Z,30.94
2023-05-18T10:16:28.532Z,30.20
2023-05-18T10:21:38.042Z,30.55
2023-05-18T10:26:45.995Z,31.39
2023-05-18T10:31:55.152Z,31.17
2023-05-18T10:37:06.514Z,31.83
2023-05-18T10:42:13.691Z,31.19
2023-05-18T10:47:22.233Z,30.77
2023-05-18T10:52:33.087Z,31.35
2023-05-18T10:57:39.921Z,31.16
2023-05-18T11:02:45.815Z,30.75
2023-05-18T11:07:51.189Z,31.28
2023-05-18T11:12:56.381Z,31.08
2023-05-18T11:18:21.422Z,31.74
2023-05-18T11:23:26.551Z,31.28
2023-05-18T11:28:31.957Z,31.39
2023-05-18T11:33:39.634Z,30.84
2023-05-18T11:39:12.792Z,31.91
2023-05-18T11:44:20.005Z,31.74
2023-05-18T11:49:28.673Z,32.29
2023-05-18T11:54:41.596Z,32.12
2023-05-18T11:59:48.358Z,30.68
2023-05-18T12:05:04.133Z,32.09
2023-05-18T12:10:15.795Z,31.65
2023-05-18T12:15:26.375Z,30.83
2023-05-18T12:20:32.366Z,30.24
2023-05-18T12:25:38.615Z,30.00
2023-05-18T12:30:45.255Z,29.00
2023-05-18T12:35:50.051Z,28.76
2023-05-18T12:40:56.917Z,29.60
2023-05-18T12:46:07.370Z,29.81
2023-05-18T12:51:20.772Z,30.99
2023-05-18T12:56:28.553Z,29.44
2023-05-18T13:01:45.332Z,31.24
2023-05-18T13:06:50.348Z,30.63
2023-05-18T13:12:07.246Z,30.81
2023-05-18T13:17:13.183Z,32.18
2023-05-18T13:22:19.233Z,30.94
2023-05-18T13:27:27.178Z,31.20
2023-05-18T13:32:32.518Z,30.80
2023-05-18T13:37:37.590Z,30.82
2023-05-18T13:42:42.863Z,31.10
2023-05-18T13:47:52.113Z,31.08
2023-05-18T13:52:57.597Z,31.23
2023-05-18T13:58:02.858Z,31.15
2023-05-18T14:03:07.683Z,31.52
2023-05-18T14:08:13.731Z,31.45
2023-05-18T14:13:19.830Z,31.35
2023-05-18T14:18:25.006Z,31.42
2023-05-18T14:23:31.086Z,31.87
2023-05-18T14:28:37.210Z,31.79
2023-05-18T14:33:42.530Z,31.97
2023-05-18T14:38:47.878Z,31.66
2023-05-18T14:43:55.092Z,31.78
2023-05-18T14:48:59.423Z,32.49
2023-05-18T14:54:04.770Z,33.67
2023-05-18T14:59:09.158Z,36.46
2023-05-18T15:04:16.127Z,38.39
2023-05-18T15:09:22.178Z,41.07
2023-05-18T15:14:27.970Z,42.65
2023-05-18T15:19:33.241Z,44.61
2023-05-18T15:24:38.572Z,47.53
2023-05-18T15:29:43.822Z,49.41
2023-05-18T15:34:52.269Z,49.10
2023-05-18T15:40:00.197Z,52.26
2023-05-18T15:45:06.416Z,51.36
2023-05-18T15:50:12.030Z,54.69
2023-05-18T15:55:16.980Z,54.71
2023-05-18T16:00:24.838Z,53.52
2023-05-18T16:05:30.018Z,51.87
2023-05-18T16:10:34.965Z,54.25
2023-05-18T16:15:40.425Z,53.08
2023-05-18T16:20:46.348Z,53.24
2023-05-18T16:25:51.644Z,53.17
2023-05-18T16:30:56.676Z,53.85
2023-05-18T16:36:01.284Z,53.00
2023-05-18T16:41:07.477Z,52.63
2023-05-18T16:46:15.201Z,53.08
2023-05-18T16:51:20.526Z,53.69
2023-05-18T16:56:26.565Z,52.95
2023-05-18T17:01:32.069Z,53.93
2023-05-18T17:06:37.432Z,52.86
2023-05-18T17:11:42.368Z,53.71
2023-05-18T17:16:48.673Z,53.55
2023-05-18T17:21:53.827Z,52.01
2023-05-18T17:26:58.635Z,52.23
2023-05-18T17:32:03.835Z,53.03
2023-05-18T17:37:08.823Z,53.72
2023-05-18T17:42:13.896Z,51.42
2023-05-18T17:47:19.599Z,54.22
2023-05-18T17:52:24.671Z,52.04
2023-05-18T17:57:30.970Z,52.12
2023-05-18T18:02:35.878Z,53.58
2023-05-18T18:07:41.040Z,52.96
2023-05-18T18:12:46.116Z,53.98
2023-05-18T18:17:51.217Z,54.30
2023-05-18T18:22:56.122Z,53.49
2023-05-18T18:28:00.595Z,52.33
2023-05-18T18:33:06.251Z,52.66
2023-05-18T18:38:11.391Z,52.48
2023-05-18T18:43:17.985Z,52.82
2023-05-18T18:48:23.937Z,52.58
2023-05-18T18:53:29.015Z,53.40
2023-05-18T18:58:34.016Z,51.23
2023-05-18T19:03:38.922Z,50.24
2023-05-18T19:08:44.763Z,50.94
2023-05-18T19:13:49.993Z,50.95
2023-05-18T19:18:55.863Z,49.72
2023-05-18T19:24:00.981Z,51.62
2023-05-18T19:29:06.051Z,50.59
2023-05-18T19:34:10.881Z,51.29
2023-05-18T19:39:18.776Z,50.83
2023-05-18T19:44:23.874Z,51.76
2023-05-18T19:49:30.908Z,53.76
2023-05-18T19:54:38.161Z,53.17
2023-05-18T19:59:44.032Z,52.49
2023-05-18T20:04:49.759Z,51.32
2023-05-18T20:09:55.908Z,51.86
2023-05-18T20:15:00.869Z,52.80
2023-05-18T20:20:07.329Z,52.51
2023-05-18T20:25:13.286Z,53.28
2023-05-18T20:30:18.059Z,53.23
2023-05-18T20:35:23.475Z,53.10
2023-05-18T20:40:32.257Z,52.67
2023-05-18T20:45:37.948Z,52.07
2023-05-18T20:50:42.912Z,51.79
2023-05-18T20:55:49.925Z,52.64
2023-05-18T21:00:57.571Z,51.21
2023-05-18T21:06:03.654Z,50.61
2023-05-18T21:11:08.921Z,51.14
2023-05-18T21:16:13.279Z,51.37
2023-05-18T21:21:21.048Z,50.36
2023-05-18T21:26:26.954Z,51.38
2023-05-18T21:31:32.869Z,51.35
2023-05-18T21:36:38.034Z,51.25
2023-05-18T21:41:44.890Z,51.39
2023-05-18T21:46:50.048Z,51.61
2023-05-18T21:51:54.609Z,51.74
2023-05-18T21:56:59.701Z,51.79
2023-05-18T22:02:04.919Z,51.54
2023-05-18T22:07:11.040Z,52.04
2023-05-18T22:12:15.808Z,51.05
2023-05-18T22:17:20.755Z,51.89
2023-05-18T22:27:35.019Z,51.12
2023-05-18T22:32:40.695Z,50.82
2023-05-18T22:37:45.652Z,51.45
2023-05-18T22:42:50.727Z,51.32
2023-05-18T22:47:55.779Z,50.63
2023-05-18T22:53:00.699Z,51.21
2023-05-18T22:58:05.912Z,50.66
2023-05-18T23:03:10.974Z,50.86
2023-05-18T23:08:16.702Z,51.66
2023-05-18T23:13:20.942Z,50.34
2023-05-18T23:18:27.884Z,51.45
2023-05-18T23:23:34.054Z,51.98
2023-05-18T23:28:39.225Z,50.83
2023-05-18T23:33:44.555Z,51.80
2023-05-18T23:38:52.692Z,51.66
2023-05-18T23:43:58.727Z,51.51
2023-05-18T23:49:04.141Z,51.91
2023-05-18T23:54:09.352Z,52.36
2023-05-18T23:59:17.274Z,51.72
